createdAt,value
2019-01-14T00:00:59.899Z,74.75
2019-01-14T00:03:29.265Z,74.59
2019-01-14T00:05:58.551Z,74.57
2019-01-14T00:08:27.874Z,74.27
2019-01-14T00:10:57.165Z,74.33
2019-01-14T00:13:26.431Z,74.16
2019-01-14T00:15:56.933Z,74.33
2019-01-14T00:18:26.234Z,73.74
2019-01-14T00:20:55.455Z,74.20
2019-01-14T00:23:26.220Z,74.15
2019-01-14T00:25:56.573Z,73.67
2019-01-14T00:28:25.832Z,73.80
2019-01-14T00:30:55.224Z,73.47
2019-01-14T00:33:24.475Z,73.67
2019-01-14T00:35:53.755Z,72.99
2019-01-14T00:38:23.012Z,73.20
2019-01-14T00:40:52.681Z,73.13
2019-01-14T00:43:21.959Z,72.67
2019-01-14T00:45:51.222Z,72.76
2019-01-14T00:48:20.519Z,72.60
2019-01-14T00:50:51.053Z,72.88
2019-01-14T00:53:21.543Z,72.27
2019-01-14T00:55:50.819Z,72.31
2019-01-14T00:58:20.122Z,72.41
2019-01-14T01:00:49.411Z,72.15
2019-01-14T01:03:18.883Z,72.20
2019-01-14T01:05:48.162Z,72.11
2019-01-14T01:08:17.418Z,72.16
2019-01-14T01:10:46.906Z,71.53
2019-01-14T01:13:16.159Z,71.83
2019-01-14T01:15:45.445Z,72.17
2019-01-14T01:18:14.713Z,71.73
2019-01-14T01:20:44.282Z,71.73
2019-01-14T01:23:13.578Z,72.32
2019-01-14T01:25:42.864Z,71.82
2019-01-14T01:28:12.170Z,71.37
2019-01-14T01:30:41.429Z,71.49
2019-01-14T01:33:10.709Z,71.55
2019-01-14T01:35:39.987Z,71.40
2019-01-14T01:38:09.278Z,71.62
2019-01-14T01:40:38.594Z,71.49
2019-01-14T01:43:07.888Z,71.49
2019-01-14T01:45:38.648Z,71.44
2019-01-14T01:48:07.903Z,71.50
2019-01-14T01:50:37.188Z,71.43
2019-01-14T01:53:06.558Z,71.84
2019-01-14T01:55:36.058Z,71.74
2019-01-14T01:58:05.511Z,71.42
2019-01-14T02:00:34.838Z,71.34
2019-01-14T02:03:04.313Z,71.77
2019-01-14T02:05:33.557Z,71.77
2019-01-14T02:08:02.880Z,71.70
2019-01-14T02:10:32.143Z,71.84
2019-01-14T02:13:01.498Z,71.71
2019-01-14T02:15:30.757Z,72.00
2019-01-14T02:18:00.082Z,72.01
2019-01-14T02:20:29.333Z,71.62
2019-01-14T02:22:58.643Z,71.72
2019-01-14T02:25:27.967Z,71.80
2019-01-14T02:27:58.254Z,71.60
2019-01-14T02:30:27.548Z,71.90
2019-01-14T02:32:56.810Z,71.46
2019-01-14T02:35:26.094Z,71.45
2019-01-14T02:37:55.359Z,71.21
2019-01-14T02:40:24.642Z,71.66
2019-01-14T02:42:53.902Z,71.71
2019-01-14T02:45:23.173Z,71.42
2019-01-14T02:47:52.461Z,71.19
2019-01-14T02:50:22.714Z,71.08
2019-01-14T02:52:52.947Z,70.92
2019-01-14T02:55:22.212Z,70.45
2019-01-14T02:57:51.474Z,70.96
2019-01-14T03:00:26.190Z,70.48
2019-01-14T03:02:55.446Z,70.24
2019-01-14T03:05:24.725Z,70.08
2019-01-14T03:07:55.185Z,70.49
2019-01-14T03:10:24.482Z,70.13
2019-01-14T03:12:53.753Z,70.18
2019-01-14T03:15:23.028Z,69.58
2019-01-14T03:17:52.310Z,69.71
2019-01-14T03:20:21.572Z,69.77
2019-01-14T03:22:50.872Z,69.84
2019-01-14T03:25:20.148Z,69.69
2019-01-14T03:27:49.412Z,69.60
2019-01-14T03:30:20.518Z,69.62
2019-01-14T03:32:49.813Z,69.42
2019-01-14T03:35:19.290Z,69.61
2019-01-14T03:37:49.460Z,70.00
2019-01-14T03:40:19.455Z,69.73
2019-01-14T03:42:48.725Z,69.48
2019-01-14T03:45:18.005Z,69.63
2019-01-14T03:47:47.274Z,69.55
2019-01-14T03:50:22.538Z,69.30
2019-01-14T03:52:52.138Z,69.91
2019-01-14T03:55:21.500Z,69.77
2019-01-14T03:57:52.179Z,69.90
2019-01-14T04:00:21.619Z,69.12
2019-01-14T04:02:52.002Z,69.03
2019-01-14T04:05:21.283Z,69.40
2019-01-14T04:07:50.577Z,69.42
2019-01-14T04:10:20.078Z,69.87
2019-01-14T04:12:49.352Z,69.67
2019-01-14T04:15:20.181Z,69.91
2019-01-14T04:17:49.540Z,69.52
2019-01-14T04:20:19.615Z,69.47
2019-01-14T04:22:49.547Z,69.25
2019-01-14T04:25:18.852Z,69.57
2019-01-14T04:27:48.108Z,69.24
2019-01-14T04:30:44.479Z,69.59
2019-01-14T04:33:13.831Z,69.29
2019-01-14T04:35:43.130Z,68.98
2019-01-14T04:38:12.383Z,69.14
2019-01-14T04:40:41.742Z,69.60
2019-01-14T04:43:11.055Z,69.50
2019-01-14T04:45:40.354Z,69.81
2019-01-14T04:48:10.929Z,69.93
2019-01-14T04:50:40.257Z,69.86
2019-01-14T04:53:10.672Z,70.26
2019-01-14T04:55:39.927Z,69.79
2019-01-14T04:58:09.216Z,69.70
2019-01-14T05:00:38.482Z,69.68
2019-01-14T05:03:07.741Z,69.67
2019-01-14T05:05:37.025Z,70.01
2019-01-14T05:08:06.298Z,69.97
2019-01-14T05:10:37.061Z,70.15
2019-01-14T05:13:06.363Z,70.62
2019-01-14T05:15:36.993Z,70.74
2019-01-14T05:18:06.569Z,70.98
2019-01-14T05:20:35.911Z,71.53
2019-01-14T05:23:05.234Z,71.37
2019-01-14T05:25:34.477Z,71.31
2019-01-14T05:28:05.005Z,71.27
2019-01-14T05:30:35.400Z,71.13
2019-01-14T05:33:04.775Z,71.09
2019-01-14T05:35:34.065Z,71.42
2019-01-14T05:38:03.357Z,72.34
2019-01-14T05:40:32.781Z,72.63
2019-01-14T05:43:02.761Z,72.78
2019-01-14T05:45:32.422Z,72.37
2019-01-14T05:48:02.161Z,73.54
2019-01-14T05:50:31.875Z,74.07
2019-01-14T05:53:02.753Z,74.67
2019-01-14T05:55:32.376Z,75.38
2019-01-14T05:58:02.150Z,75.52
2019-01-14T06:00:41.488Z,74.99
2019-01-14T06:03:11.138Z,75.15
2019-01-14T06:05:40.779Z,75.42
2019-01-14T06:08:10.895Z,75.55
2019-01-14T06:10:45.448Z,75.14
2019-01-14T06:13:14.708Z,75.19
2019-01-14T06:15:44.029Z,75.13
2019-01-14T06:18:13.517Z,75.80
2019-01-14T06:20:42.783Z,75.42
2019-01-14T06:23:12.160Z,75.33
2019-01-14T06:25:41.717Z,75.61
2019-01-14T06:28:11.323Z,76.09
2019-01-14T06:30:40.992Z,75.79
2019-01-14T06:33:10.613Z,76.04
2019-01-14T06:35:39.874Z,76.14
2019-01-14T06:38:09.716Z,76.55
2019-01-14T06:40:39.460Z,76.27
2019-01-14T06:43:09.570Z,76.25
2019-01-14T06:45:39.085Z,74.65
2019-01-14T06:48:08.719Z,74.12
2019-01-14T06:50:39.785Z,73.53
2019-01-14T06:53:09.547Z,73.13
2019-01-14T06:55:39.151Z,72.28
2019-01-14T06:58:09.849Z,71.55
2019-01-14T07:00:39.155Z,71.28
2019-01-14T07:03:08.549Z,70.22
2019-01-14T07:05:37.822Z,69.75
2019-01-14T07:08:07.119Z,69.11
2019-01-14T07:10:36.395Z,69.18
2019-01-14T07:13:05.881Z,69.64
2019-01-14T07:15:42.410Z,69.09
2019-01-14T07:18:11.733Z,68.12
2019-01-14T07:20:41.042Z,68.73
2019-01-14T07:23:10.334Z,67.96
2019-01-14T07:25:39.621Z,67.92
2019-01-14T07:28:08.903Z,67.53
2019-01-14T07:30:38.201Z,67.83
2019-01-14T07:33:07.465Z,67.92
2019-01-14T07:35:36.754Z,68.20
2019-01-14T07:38:06.856Z,68.55
2019-01-14T07:40:36.589Z,68.84
2019-01-14T07:43:05.884Z,68.13
2019-01-14T07:45:35.151Z,69.11
2019-01-14T07:48:05.918Z,68.99
2019-01-14T07:50:35.211Z,69.20
2019-01-14T07:53:04.657Z,69.08
2019-01-14T07:55:33.873Z,69.48
2019-01-14T07:58:03.154Z,69.41
2019-01-14T08:00:32.460Z,69.57
2019-01-14T08:03:01.731Z,69.88
2019-01-14T08:05:31.037Z,69.97
2019-01-14T08:08:00.477Z,69.58
2019-01-14T08:10:29.761Z,69.44
2019-01-14T08:12:59.118Z,69.90
2019-01-14T08:15:28.386Z,69.70
2019-01-14T08:17:57.687Z,69.67
2019-01-14T08:20:26.963Z,69.09
2019-01-14T08:22:56.249Z,69.21
2019-01-14T08:25:27.335Z,68.99
2019-01-14T08:27:56.598Z,68.92
2019-01-14T08:30:26.987Z,68.88
2019-01-14T08:32:56.260Z,68.99
2019-01-14T08:35:25.530Z,68.92
2019-01-14T08:37:54.823Z,69.06
2019-01-14T08:40:25.195Z,68.71
2019-01-14T08:42:54.511Z,68.74
2019-01-14T08:45:23.850Z,68.35
2019-01-14T08:47:53.121Z,68.95
2019-01-14T08:50:22.788Z,69.08
2019-01-14T08:52:52.474Z,69.31
2019-01-14T08:55:21.740Z,69.08
2019-01-14T08:57:54.610Z,69.11
2019-01-14T09:00:23.337Z,69.76
2019-01-14T09:02:52.654Z,70.38
2019-01-14T09:05:22.221Z,70.88
2019-01-14T09:07:51.677Z,71.85
2019-01-14T09:12:51.959Z,71.87
2019-01-14T09:15:21.228Z,72.49
2019-01-14T09:17:50.519Z,72.56
2019-01-14T09:20:21.673Z,72.91
2019-01-14T09:22:51.349Z,73.12
2019-01-14T09:25:20.666Z,73.29
2019-01-14T09:27:51.021Z,73.02
2019-01-14T09:30:22.385Z,72.67
2019-01-14T09:32:51.651Z,69.96
2019-01-14T09:35:20.902Z,66.57
2019-01-14T09:37:50.199Z,66.98
2019-01-14T09:40:21.291Z,65.45
2019-01-14T09:42:50.576Z,66.03
2019-01-14T09:45:19.892Z,67.51
2019-01-14T09:47:49.171Z,68.57
2019-01-14T09:50:18.428Z,69.55
2019-01-14T09:52:48.034Z,69.85
2019-01-14T09:55:18.790Z,70.19
2019-01-14T09:57:48.099Z,70.24
2019-01-14T10:00:17.531Z,70.20
2019-01-14T10:02:47.232Z,70.28
2019-01-14T10:05:18.446Z,70.60
2019-01-14T10:07:47.937Z,70.57
2019-01-14T10:10:18.557Z,70.63
2019-01-14T10:12:47.859Z,70.65
2019-01-14T10:15:22.447Z,71.18
2019-01-14T10:17:56.982Z,71.30
2019-01-14T10:20:26.294Z,71.82
2019-01-14T10:22:55.542Z,72.62
2019-01-14T10:25:25.697Z,73.26
2019-01-14T10:27:54.987Z,71.78
2019-01-14T10:30:24.247Z,72.14
2019-01-14T10:32:55.005Z,73.31
2019-01-14T10:35:24.287Z,74.28
2019-01-14T10:37:53.564Z,74.00
2019-01-14T10:40:24.705Z,73.62
2019-01-14T10:42:54.549Z,73.44
2019-01-14T10:45:24.704Z,73.45
2019-01-14T10:47:54.106Z,73.06
2019-01-14T10:50:23.385Z,73.44
2019-01-14T10:52:52.701Z,73.09
2019-01-14T10:55:21.975Z,73.28
2019-01-14T10:57:51.270Z,73.70
2019-01-14T11:00:25.475Z,72.62
2019-01-14T11:02:55.268Z,72.02
2019-01-14T11:05:28.009Z,71.83
2019-01-14T11:07:57.334Z,72.50
2019-01-14T11:10:28.102Z,72.39
2019-01-14T11:12:57.442Z,72.46
2019-01-14T11:15:26.741Z,72.99
2019-01-14T11:17:56.035Z,71.92
2019-01-14T11:20:27.830Z,72.12
2019-01-14T11:22:58.960Z,72.05
2019-01-14T11:25:28.868Z,72.62
2019-01-14T11:27:58.960Z,72.60
2019-01-14T11:30:30.530Z,71.67
2019-01-14T11:33:01.433Z,70.25
2019-01-14T11:35:30.702Z,68.95
2019-01-14T11:38:00.240Z,68.12
2019-01-14T11:40:32.807Z,69.30
2019-01-14T11:43:02.075Z,69.00
2019-01-14T11:45:31.360Z,68.65
2019-01-14T11:48:00.690Z,68.74
2019-01-14T11:50:29.960Z,68.95
2019-01-14T11:52:59.243Z,68.88
2019-01-14T11:55:28.533Z,68.92
2019-01-14T11:57:57.821Z,68.66
2019-01-14T12:00:27.500Z,68.77
2019-01-14T12:02:58.296Z,68.75
2019-01-14T12:05:27.630Z,68.35
2019-01-14T12:07:56.953Z,67.10
2019-01-14T12:10:26.343Z,67.27
2019-01-14T12:12:55.645Z,66.79
2019-01-14T12:15:27.249Z,66.76
2019-01-14T12:17:56.675Z,67.19
2019-01-14T12:20:25.934Z,66.71
2019-01-14T12:22:55.188Z,65.65
2019-01-14T12:25:24.464Z,64.52
2019-01-14T12:27:53.723Z,64.70
2019-01-14T12:30:37.619Z,64.89
2019-01-14T12:33:07.112Z,65.57
2019-01-14T12:35:36.372Z,65.79
2019-01-14T12:38:06.062Z,65.88
2019-01-14T12:40:35.494Z,66.74
2019-01-14T12:43:04.877Z,66.61
2019-01-14T12:45:34.150Z,66.93
2019-01-14T12:48:03.599Z,67.22
2019-01-14T12:50:33.058Z,67.53
2019-01-14T12:53:02.733Z,67.54
2019-01-14T12:55:32.024Z,68.00
2019-01-14T12:58:01.291Z,67.55
2019-01-14T13:00:31.431Z,66.71
2019-01-14T13:03:00.738Z,65.22
2019-01-14T13:05:31.314Z,62.60
2019-01-14T13:08:00.678Z,63.25
2019-01-14T13:10:30.050Z,63.22
2019-01-14T13:13:01.164Z,62.55
2019-01-14T13:15:31.923Z,62.81
2019-01-14T13:18:05.421Z,63.55
2019-01-14T13:20:35.152Z,64.11
2019-01-14T13:23:04.636Z,65.17
2019-01-14T13:25:34.033Z,65.15
2019-01-14T13:28:03.349Z,64.97
2019-01-14T13:30:32.657Z,65.75
2019-01-14T13:33:02.145Z,65.92
2019-01-14T13:35:31.930Z,65.76
2019-01-14T13:38:01.255Z,65.76
2019-01-14T13:40:32.368Z,66.36
2019-01-14T13:43:02.961Z,66.59
2019-01-14T13:45:32.262Z,66.08
2019-01-14T13:48:01.587Z,65.97
2019-01-14T13:50:30.846Z,65.79
2019-01-14T13:53:00.136Z,64.49
2019-01-14T13:55:29.429Z,64.72
2019-01-14T13:58:00.165Z,63.66
2019-01-14T14:00:29.568Z,63.68
2019-01-14T14:02:58.844Z,63.72
2019-01-14T14:05:28.101Z,63.82
2019-01-14T14:07:57.384Z,63.26
2019-01-14T14:10:31.198Z,63.21
2019-01-14T14:13:00.616Z,62.69
2019-01-14T14:15:30.317Z,62.15
2019-01-14T14:17:59.626Z,62.24
2019-01-14T14:20:29.046Z,61.39
2019-01-14T14:22:58.337Z,61.67
2019-01-14T14:25:27.854Z,62.29
2019-01-14T14:27:57.161Z,60.32
2019-01-14T14:30:31.980Z,59.10
2019-01-14T14:33:01.432Z,58.13
2019-01-14T14:35:30.693Z,57.97
2019-01-14T14:38:01.402Z,57.47
2019-01-14T14:40:30.857Z,56.34
2019-01-14T14:43:00.110Z,56.21
2019-01-14T14:45:29.393Z,55.74
2019-01-14T14:47:58.692Z,55.29
2019-01-14T14:50:27.981Z,55.03
2019-01-14T14:52:57.290Z,53.43
2019-01-14T14:55:26.590Z,53.65
2019-01-14T14:57:55.882Z,53.32
2019-01-14T15:00:25.139Z,53.15
2019-01-14T15:02:54.436Z,53.17
2019-01-14T15:05:23.729Z,53.63
2019-01-14T15:07:52.989Z,53.67
2019-01-14T15:10:23.241Z,53.92
2019-01-14T15:12:52.754Z,54.22
2019-01-14T15:15:24.279Z,53.83
2019-01-14T15:17:53.552Z,53.97
2019-01-14T15:20:24.166Z,53.83
2019-01-14T15:22:53.463Z,53.97
2019-01-14T15:25:22.755Z,53.34
2019-01-14T15:27:52.078Z,53.61
2019-01-14T15:30:35.473Z,53.34
2019-01-14T15:33:04.872Z,53.69
2019-01-14T15:35:34.177Z,53.17
2019-01-14T15:38:03.476Z,53.98
2019-01-14T15:40:32.798Z,53.93
2019-01-14T15:43:02.060Z,54.17
2019-01-14T15:45:31.394Z,54.34
2019-01-14T15:48:00.669Z,54.07
2019-01-14T15:50:29.967Z,54.58
2019-01-14T15:52:59.236Z,54.46
2019-01-14T15:55:28.846Z,54.43
2019-01-14T15:57:58.303Z,54.44
2019-01-14T16:00:27.767Z,55.04
2019-01-14T16:02:57.091Z,55.59
2019-01-14T16:05:26.640Z,55.42
2019-01-14T16:07:56.218Z,56.25
2019-01-14T16:10:26.909Z,56.60
2019-01-14T16:12:56.238Z,56.87
2019-01-14T16:15:25.879Z,57.82
2019-01-14T16:17:55.174Z,58.56
2019-01-14T16:20:28.208Z,59.02
2019-01-14T16:22:57.524Z,59.80
2019-01-14T16:25:27.967Z,60.09
2019-01-14T16:27:57.319Z,60.76
2019-01-14T16:30:30.009Z,60.46
2019-01-14T16:32:59.933Z,60.02
2019-01-14T16:35:29.730Z,59.11
2019-01-14T16:37:59.211Z,58.69
2019-01-14T16:40:30.356Z,58.17
2019-01-14T16:43:00.091Z,57.08
2019-01-14T16:45:31.079Z,57.00
2019-01-14T16:48:01.422Z,56.15
2019-01-14T16:50:30.719Z,55.85
2019-01-14T16:53:00.904Z,56.20
2019-01-14T16:55:55.072Z,56.56
2019-01-14T16:58:24.329Z,56.18
2019-01-14T17:00:53.848Z,56.45
2019-01-14T17:03:23.183Z,56.57
2019-01-14T17:05:52.443Z,57.06
2019-01-14T17:08:43.237Z,56.73
2019-01-14T17:11:12.831Z,56.44
2019-01-14T17:13:42.750Z,55.79
2019-01-14T17:16:12.046Z,56.05
2019-01-14T17:18:41.342Z,55.94
2019-01-14T17:21:10.624Z,55.96
2019-01-14T17:23:39.936Z,55.81
2019-01-14T17:26:09.339Z,55.87
2019-01-14T17:28:39.705Z,55.86
2019-01-14T17:31:09.001Z,55.85
2019-01-14T17:33:44.990Z,56.41
2019-01-14T17:36:24.697Z,56.30
2019-01-14T17:38:54.002Z,55.54
2019-01-14T17:41:23.683Z,56.00
2019-01-14T17:43:52.994Z,55.92
2019-01-14T17:46:22.302Z,56.53
2019-01-14T17:48:51.604Z,56.49
2019-01-14T17:51:20.886Z,56.27
2019-01-14T17:53:50.163Z,56.04
2019-01-14T17:56:19.418Z,56.25
2019-01-14T17:58:48.690Z,56.84
2019-01-14T18:01:17.955Z,56.84
2019-01-14T18:03:47.339Z,56.21
2019-01-14T18:06:16.619Z,56.30
2019-01-14T18:08:45.958Z,55.55
2019-01-14T18:11:15.222Z,55.62
2019-01-14T18:13:44.487Z,55.91
2019-01-14T18:16:13.757Z,56.05
2019-01-14T18:18:43.018Z,56.20
2019-01-14T18:21:13.781Z,56.84
2019-01-14T18:23:43.443Z,56.96
2019-01-14T18:26:12.722Z,57.25
2019-01-14T18:28:42.014Z,57.06
2019-01-14T18:31:11.501Z,57.08
2019-01-14T18:33:40.790Z,56.66
2019-01-14T18:36:10.060Z,57.24
2019-01-14T18:38:43.048Z,57.45
2019-01-14T18:41:12.560Z,56.34
2019-01-14T18:43:41.880Z,56.05
2019-01-14T18:46:11.163Z,55.54
2019-01-14T18:48:40.441Z,55.56
2019-01-14T18:51:09.714Z,55.27
2019-01-14T18:53:39.012Z,55.41
2019-01-14T18:56:08.327Z,55.03
2019-01-14T18:58:37.696Z,55.01
2019-01-14T19:01:06.981Z,54.43
2019-01-14T19:03:38.993Z,54.13
2019-01-14T19:06:08.608Z,54.42
2019-01-14T19:08:38.126Z,54.54
2019-01-14T19:11:07.542Z,54.57
2019-01-14T19:13:37.075Z,54.73
2019-01-14T19:16:08.028Z,55.02
2019-01-14T19:18:37.325Z,55.55
2019-01-14T19:21:06.605Z,55.80
2019-01-14T19:23:37.664Z,56.21
2019-01-14T19:26:07.275Z,56.53
2019-01-14T19:28:36.904Z,56.22
2019-01-14T19:31:06.220Z,56.25
2019-01-14T19:33:35.621Z,56.61
2019-01-14T19:36:05.385Z,56.36
2019-01-14T19:38:34.760Z,56.23
2019-01-14T19:41:04.110Z,56.17
2019-01-14T19:43:33.418Z,56.64
2019-01-14T19:46:02.891Z,56.42
2019-01-14T19:48:33.197Z,56.38
2019-01-14T19:51:02.602Z,56.41
2019-01-14T19:53:31.891Z,56.97
2019-01-14T19:56:02.368Z,56.69
2019-01-14T19:58:31.841Z,56.79
2019-01-14T20:01:01.263Z,56.79
2019-01-14T20:03:30.710Z,56.84
2019-01-14T20:06:00.155Z,57.11
2019-01-14T20:08:29.627Z,56.47
2019-01-14T20:11:00.401Z,56.72
2019-01-14T20:13:29.734Z,57.65
2019-01-14T20:15:59.328Z,57.52
2019-01-14T20:18:28.838Z,58.01
2019-01-14T20:21:00.173Z,57.78
2019-01-14T20:23:29.615Z,58.28
2019-01-14T20:26:00.126Z,57.95
2019-01-14T20:28:30.770Z,57.46
2019-01-14T20:31:00.215Z,57.99
2019-01-14T20:33:30.786Z,57.62
2019-01-14T20:36:00.161Z,57.32
2019-01-14T20:38:29.698Z,57.55
2019-01-14T20:40:59.134Z,57.90
2019-01-14T20:43:28.507Z,57.82
2019-01-14T20:45:58.093Z,58.31
2019-01-14T20:48:28.859Z,58.19
2019-01-14T20:50:59.019Z,58.02
2019-01-14T20:53:28.520Z,58.50
2019-01-14T20:55:58.022Z,58.38
2019-01-14T20:58:27.291Z,58.48
2019-01-14T21:00:56.566Z,58.85
2019-01-14T21:03:25.850Z,59.20
2019-01-14T21:05:55.139Z,59.10
2019-01-14T21:08:27.115Z,59.29
2019-01-14T21:10:57.125Z,59.62
2019-01-14T21:13:27.281Z,59.83
2019-01-14T21:16:02.806Z,59.59
2019-01-14T21:18:29.712Z,59.98
2019-01-14T21:20:59.527Z,60.10
2019-01-14T21:23:30.897Z,59.83
2019-01-14T21:26:00.183Z,59.85
2019-01-14T21:28:29.516Z,59.83
2019-01-14T21:30:58.794Z,59.76
2019-01-14T21:33:29.396Z,60.17
2019-01-14T21:35:58.945Z,59.53
2019-01-14T21:38:28.630Z,59.57
2019-01-14T21:40:58.551Z,59.43
2019-01-14T21:43:27.878Z,59.59
2019-01-14T21:45:57.818Z,59.31
2019-01-14T21:48:27.960Z,59.42
2019-01-14T21:50:57.717Z,59.26
2019-01-14T21:53:28.123Z,59.37
2019-01-14T21:55:59.029Z,59.59
2019-01-14T21:58:28.759Z,59.62
2019-01-14T22:00:58.182Z,59.52
2019-01-14T22:03:27.475Z,59.65
2019-01-14T22:05:56.802Z,59.78
2019-01-14T22:08:27.605Z,60.12
2019-01-14T22:10:56.967Z,60.46
2019-01-14T22:13:27.056Z,60.55
2019-01-14T22:15:56.400Z,60.67
2019-01-14T22:18:26.111Z,60.40
2019-01-14T22:20:55.451Z,60.51
2019-01-14T22:23:24.815Z,59.97
2019-01-14T22:25:54.103Z,60.39
2019-01-14T22:28:25.184Z,60.26
2019-01-14T22:30:54.474Z,59.78
2019-01-14T22:33:25.675Z,60.25
2019-01-14T22:35:54.976Z,60.28
2019-01-14T22:38:24.287Z,59.79
2019-01-14T22:43:40.822Z,60.22
2019-01-14T22:46:10.181Z,60.09
2019-01-14T22:48:40.537Z,60.42
2019-01-14T22:51:09.830Z,60.57
2019-01-14T22:53:39.114Z,60.71
2019-01-14T22:56:08.402Z,60.80
2019-01-14T22:58:38.258Z,61.12
2019-01-14T23:01:37.066Z,61.07
2019-01-14T23:04:06.561Z,61.23
2019-01-14T23:06:36.017Z,61.50
2019-01-14T23:09:08.513Z,61.27
2019-01-14T23:11:37.886Z,61.52
2019-01-14T23:14:07.295Z,61.74
2019-01-14T23:16:38.569Z,61.85
2019-01-14T23:19:07.860Z,62.15
2019-01-14T23:21:37.111Z,61.94
2019-01-14T23:24:06.439Z,61.96
2019-01-14T23:26:36.030Z,62.25
2019-01-14T23:29:05.532Z,62.55
2019-01-14T23:31:35.058Z,62.52
2019-01-14T23:34:04.663Z,62.60
2019-01-14T23:36:35.026Z,62.72
2019-01-14T23:39:07.123Z,62.72
2019-01-14T23:41:36.432Z,62.86
2019-01-14T23:44:06.105Z,63.15
2019-01-14T23:46:35.401Z,63.81
2019-01-14T23:49:04.876Z,64.29
2019-01-14T23:51:34.167Z,64.66
2019-01-14T23:54:03.430Z,64.99
2019-01-14T23:56:32.674Z,65.05
2019-01-14T23:59:01.965Z,65.23
